Time;durP1;ratioP1;P1;durP2;ratioP2;P2;SDS_P1;SDS_P2;PMS_P1;PMS_P2;Temp;Humidity;BMP_temperature;BMP_pressure;BME280_temperature;BME280_humidity;BME280_pressure;Samples;Min_cycle;Max_cycle;Signal;HPM_P1;HPM_P2
2022/10/31 00:01:53;;;;;;;0.20;0.20;;;;;;;;;;7398843;19;20630;-87
2022/10/31 00:04:18;;;;;;;0.30;0.30;;;;;;;;;;7400265;19;20207;-86
2022/10/31 00:06:44;;;;;;;1.53;1.43;;;;;;;;;;7399818;19;20128;-86
2022/10/31 00:09:09;;;;;;;0.30;0.30;;;;;;;;;;7394550;19;20153;-87
2022/10/31 00:11:35;;;;;;;0.60;0.60;;;;;;;;;;7398615;19;20160;-85
2022/10/31 00:14:00;;;;;;;0.20;0.20;;;;;;;;;;7399933;19;20129;-86
2022/10/31 00:16:26;;;;;;;1.50;0.50;;;;;;;;;;7400574;19;20148;-88
2022/10/31 00:18:54;;;;;;;2.73;0.70;;;;;;;;;;7401052;19;20161;-86
2022/10/31 00:21:20;;;;;;;0.20;0.20;;;;;;;;;;7401002;19;20142;-86
2022/10/31 00:23:46;;;;;;;0.40;0.40;;;;;;;;;;7400618;19;20117;-86
2022/10/31 00:26:11;;;;;;;0.30;0.30;;;;;;;;;;7402157;19;20166;-87
2022/10/31 00:28:37;;;;;;;0.30;0.30;;;;;;;;;;7399791;19;20172;-86
2022/10/31 00:31:04;;;;;;;0.40;0.40;;;;;;;;;;7399193;19;20113;-86
2022/10/31 00:33:29;;;;;;;0.30;0.30;;;;;;;;;;7398556;19;20637;-87
2022/10/31 00:35:56;;;;;;;0.30;0.30;;;;;;;;;;7397080;19;20128;-88
2022/10/31 00:38:21;;;;;;;0.83;0.83;;;;;;;;;;7397984;19;20153;-86
2022/10/31 00:40:52;;;;;;;0.20;0.20;;;;;;;;;;7398674;19;20125;-86
2022/10/31 00:43:17;;;;;;;0.40;0.40;;;;;;;;;;7398723;19;20119;-86
2022/10/31 00:45:42;;;;;;;0.27;0.27;;;;;;;;;;7396613;19;20667;-86
2022/10/31 00:48:08;;;;;;;0.40;0.40;;;;;;;;;;7395700;19;20489;-87
2022/10/31 00:50:34;;;;;;;1.13;0.90;;;;;;;;;;7397721;19;20124;-87
2022/10/31 00:52:59;;;;;;;0.20;0.20;;;;;;;;;;7397781;19;20121;-85
2022/10/31 00:55:24;;;;;;;0.30;0.30;;;;;;;;;;7397716;19;20150;-87
2022/10/31 00:57:50;;;;;;;0.20;0.20;;;;;;;;;;7397647;19;20153;-86
2022/10/31 01:00:15;;;;;;;0.30;0.30;;;;;;;;;;7398285;19;20129;-86
2022/10/31 01:02:40;;;;;;;0.27;0.27;;;;;;;;;;7398406;19;20654;-85
2022/10/31 01:05:06;;;;;;;0.30;0.30;;;;;;;;;;7397402;19;20121;-86
2022/10/31 01:07:31;;;;;;;0.30;0.30;;;;;;;;;;7398592;19;20144;-87
2022/10/31 01:09:57;;;;;;;0.30;0.30;;;;;;;;;;7394929;19;20128;-89
2022/10/31 01:12:22;;;;;;;0.50;0.50;;;;;;;;;;7397745;19;20135;-85
2022/10/31 01:14:48;;;;;;;0.30;0.30;;;;;;;;;;7399066;19;20133;-87
2022/10/31 01:17:13;;;;;;;0.20;0.20;;;;;;;;;;7398681;19;20605;-86
2022/10/31 01:19:39;;;;;;;0.70;0.70;;;;;;;;;;7398729;19;20132;-86
2022/10/31 01:22:05;;;;;;;0.57;0.57;;;;;;;;;;7398607;19;20187;-86
2022/10/31 01:24:31;;;;;;;0.30;0.30;;;;;;;;;;7399535;19;20133;-88
2022/10/31 01:26:56;;;;;;;0.20;0.20;;;;;;;;;;7397881;19;20478;-87
2022/10/31 01:29:21;;;;;;;0.20;0.20;;;;;;;;;;7401869;19;20155;-89
2022/10/31 01:31:46;;;;;;;0.50;0.50;;;;;;;;;;7414392;19;20133;-90
2022/10/31 01:34:14;;;;;;;0.20;0.20;;;;;;;;;;7413632;19;20125;-86
2022/10/31 01:36:39;;;;;;;0.27;0.27;;;;;;;;;;7418165;19;20109;-85
2022/10/31 01:39:09;;;;;;;0.30;0.30;;;;;;;;;;7403066;19;20174;-87
2022/10/31 01:41:37;;;;;;;0.70;0.70;;;;;;;;;;7397487;19;20113;-87
2022/10/31 01:44:22;;;;;;;0.30;0.30;;;;;;;;;;7396821;19;20125;-87
2022/10/31 01:47:00;;;;;;;0.30;0.30;;;;;;;;;;7396717;19;20127;-86
2022/10/31 01:49:28;;;;;;;0.23;0.23;;;;;;;;;;7396487;19;20163;-86
2022/10/31 01:52:07;;;;;;;0.30;0.30;;;;;;;;;;7395986;19;20110;-86
2022/10/31 01:54:36;;;;;;;0.20;0.20;;;;;;;;;;7394942;19;20109;-88
2022/10/31 01:57:02;;;;;;;0.20;0.20;;;;;;;;;;7394338;19;20116;-86
2022/10/31 01:59:30;;;;;;;0.30;0.30;;;;;;;;;;7392953;19;20160;-87
2022/10/31 02:01:56;;;;;;;0.20;0.20;;;;;;;;;;7393346;19;20230;-87
2022/10/31 02:04:24;;;;;;;0.30;0.30;;;;;;;;;;7398474;19;20130;-87
2022/10/31 02:06:52;;;;;;;0.30;0.30;;;;;;;;;;7403323;19;20511;-86
2022/10/31 02:09:23;;;;;;;0.20;0.20;;;;;;;;;;7400316;19;20157;-86
2022/10/31 02:11:51;;;;;;;0.20;0.20;;;;;;;;;;7402227;19;20105;-87
2022/10/31 02:14:16;;;;;;;0.20;0.20;;;;;;;;;;7406503;19;20125;-85
2022/10/31 02:16:41;;;;;;;0.30;0.30;;;;;;;;;;7406020;19;20132;-85
2022/10/31 02:19:08;;;;;;;0.20;0.20;;;;;;;;;;7403985;19;20513;-86
2022/10/31 02:21:49;;;;;;;0.30;0.30;;;;;;;;;;7405065;19;20161;-86
2022/10/31 02:24:21;;;;;;;1.43;1.33;;;;;;;;;;7404623;19;20109;-86
2022/10/31 02:26:54;;;;;;;0.30;0.30;;;;;;;;;;7406306;19;20157;-85
2022/10/31 02:29:43;;;;;;;0.30;0.30;;;;;;;;;;7402601;19;20180;-86
2022/10/31 02:32:43;;;;;;;0.20;0.20;;;;;;;;;;7403904;19;20122;-85
2022/10/31 02:35:23;;;;;;;0.30;0.30;;;;;;;;;;7399607;19;20204;-86
2022/10/31 02:37:57;;;;;;;0.30;0.30;;;;;;;;;;7402507;19;20149;-87
2022/10/31 02:40:31;;;;;;;0.30;0.30;;;;;;;;;;7402940;19;20133;-85
2022/10/31 02:43:27;;;;;;;0.20;0.20;;;;;;;;;;7405456;19;20129;-86
2022/10/31 02:45:55;;;;;;;0.47;0.47;;;;;;;;;;7406295;19;20136;-86
2022/10/31 02:48:27;;;;;;;0.30;0.30;;;;;;;;;;7404225;19;20646;-85
2022/10/31 02:50:56;;;;;;;0.20;0.20;;;;;;;;;;7402145;19;20125;-88
2022/10/31 02:53:21;;;;;;;0.20;0.20;;;;;;;;;;7402058;19;20140;-86
2022/10/31 02:55:51;;;;;;;1.70;0.80;;;;;;;;;;7400347;19;20483;-85
2022/10/31 02:58:20;;;;;;;0.30;0.30;;;;;;;;;;7400587;19;20169;-85
2022/10/31 03:01:00;;;;;;;0.30;0.30;;;;;;;;;;7401954;19;20109;-86
2022/10/31 03:03:40;;;;;;;0.20;0.20;;;;;;;;;;7401602;19;20144;-85
2022/10/31 03:06:20;;;;;;;0.20;0.20;;;;;;;;;;7401310;19;20331;-85
2022/10/31 03:09:09;;;;;;;0.37;0.37;;;;;;;;;;7397866;19;20169;-85
2022/10/31 03:11:50;;;;;;;0.20;0.20;;;;;;;;;;7399241;19;20120;-86
2022/10/31 03:14:33;;;;;;;0.30;0.30;;;;;;;;;;7398259;19;20113;-87
2022/10/31 03:17:02;;;;;;;0.37;0.37;;;;;;;;;;7398893;19;20597;-86
2022/10/31 03:19:35;;;;;;;0.20;0.20;;;;;;;;;;7398238;19;20161;-87
2022/10/31 03:22:07;;;;;;;0.23;0.23;;;;;;;;;;7402120;19;20109;-86
2022/10/31 03:24:36;;;;;;;0.30;0.30;;;;;;;;;;7399656;19;20185;-86
2022/10/31 03:27:01;;;;;;;0.20;0.20;;;;;;;;;;7400513;19;20129;-85
2022/10/31 03:29:29;;;;;;;0.30;0.30;;;;;;;;;;7396984;19;20168;-86
2022/10/31 03:31:57;;;;;;;0.30;0.30;;;;;;;;;;7399870;19;20105;-86
2022/10/31 03:34:23;;;;;;;0.20;0.20;;;;;;;;;;7401363;19;20520;-86
2022/10/31 03:36:51;;;;;;;0.30;0.30;;;;;;;;;;7399655;19;20141;-87
2022/10/31 03:39:19;;;;;;;0.30;0.30;;;;;;;;;;7397891;19;20155;-88
2022/10/31 03:41:49;;;;;;;0.30;0.30;;;;;;;;;;7398529;19;20132;-85
2022/10/31 03:44:16;;;;;;;0.57;0.57;;;;;;;;;;7398490;19;20629;-85
2022/10/31 03:46:42;;;;;;;0.20;0.20;;;;;;;;;;7399781;19;20113;-91
2022/10/31 03:49:08;;;;;;;0.20;0.20;;;;;;;;;;7397856;19;20152;-85
2022/10/31 03:51:48;;;;;;;0.20;0.20;;;;;;;;;;7398781;19;20579;-88
2022/10/31 03:54:29;;;;;;;0.20;0.20;;;;;;;;;;7399905;19;20135;-86
2022/10/31 03:57:04;;;;;;;0.30;0.30;;;;;;;;;;7398051;19;20136;-89
2022/10/31 03:59:33;;;;;;;0.30;0.30;;;;;;;;;;7396672;19;20172;-85
2022/10/31 04:02:21;;;;;;;0.57;0.57;;;;;;;;;;7398623;19;20109;-87
2022/10/31 04:04:48;;;;;;;0.30;0.30;;;;;;;;;;7393747;19;20145;-86
2022/10/31 04:07:14;;;;;;;0.30;0.30;;;;;;;;;;7390952;19;20555;-86
2022/10/31 04:09:43;;;;;;;0.30;0.30;;;;;;;;;;7388767;19;20638;-86
2022/10/31 04:12:10;;;;;;;0.20;0.20;;;;;;;;;;7391456;19;20125;-85
2022/10/31 04:14:37;;;;;;;0.30;0.30;;;;;;;;;;7390962;19;20140;-85
2022/10/31 04:17:05;;;;;;;0.30;0.30;;;;;;;;;;7394081;19;20125;-89
2022/10/31 04:19:32;;;;;;;0.20;0.20;;;;;;;;;;7388498;19;20524;-85
2022/10/31 04:21:57;;;;;;;0.20;0.20;;;;;;;;;;7388342;19;20110;-87
2022/10/31 04:24:23;;;;;;;0.30;0.30;;;;;;;;;;7388204;19;20111;-86
2022/10/31 04:26:48;;;;;;;1.00;1.00;;;;;;;;;;7390320;19;20112;-88
2022/10/31 04:29:13;;;;;;;0.30;0.30;;;;;;;;;;7392681;19;20125;-86
2022/10/31 04:31:38;;;;;;;0.20;0.20;;;;;;;;;;7393990;19;20651;-87
2022/10/31 04:34:04;;;;;;;0.33;0.33;;;;;;;;;;7396247;19;20125;-86
2022/10/31 04:36:29;;;;;;;0.20;0.20;;;;;;;;;;7397396;19;20125;-87
2022/10/31 04:38:54;;;;;;;0.30;0.30;;;;;;;;;;7396015;19;20125;-88
2022/10/31 04:41:20;;;;;;;0.40;0.40;;;;;;;;;;7396269;19;20121;-86
2022/10/31 04:43:45;;;;;;;0.30;0.30;;;;;;;;;;7397493;19;20173;-86
2022/10/31 04:46:10;;;;;;;0.30;0.30;;;;;;;;;;7397544;19;20112;-85
2022/10/31 04:48:36;;;;;;;0.23;0.23;;;;;;;;;;7396427;19;20153;-86
2022/10/31 04:51:02;;;;;;;0.23;0.23;;;;;;;;;;7399476;19;20125;-85
2022/10/31 04:53:28;;;;;;;0.20;0.20;;;;;;;;;;7399174;19;20129;-85
2022/10/31 04:55:53;;;;;;;0.37;0.37;;;;;;;;;;7400622;19;20133;-85
2022/10/31 04:58:18;;;;;;;0.30;0.30;;;;;;;;;;7397888;19;20499;-86
2022/10/31 05:00:44;;;;;;;2.60;0.80;;;;;;;;;;7397897;19;20117;-86
2022/10/31 05:03:09;;;;;;;0.23;0.23;;;;;;;;;;7399803;19;20125;-86
2022/10/31 05:05:34;;;;;;;0.30;0.30;;;;;;;;;;7395551;19;20125;-87
2022/10/31 05:08:00;;;;;;;0.30;0.30;;;;;;;;;;7395320;19;20152;-86
2022/10/31 05:10:27;;;;;;;0.23;0.23;;;;;;;;;;7395819;19;20205;-85
2022/10/31 05:12:55;;;;;;;0.20;0.20;;;;;;;;;;7397292;19;20121;-89
2022/10/31 05:15:22;;;;;;;0.20;0.20;;;;;;;;;;7394810;19;20134;-85
2022/10/31 05:17:54;;;;;;;0.30;0.30;;;;;;;;;;7395095;19;20152;-85
2022/10/31 05:20:21;;;;;;;0.30;0.30;;;;;;;;;;7396860;19;20830;-85
2022/10/31 05:22:48;;;;;;;0.20;0.20;;;;;;;;;;7397603;19;20101;-85
2022/10/31 05:25:14;;;;;;;0.30;0.30;;;;;;;;;;7395571;19;20198;-88
2022/10/31 05:27:44;;;;;;;0.20;0.20;;;;;;;;;;7396991;19;20689;-86
2022/10/31 05:30:12;;;;;;;0.40;0.40;;;;;;;;;;7397771;19;20148;-86
2022/10/31 05:32:42;;;;;;;0.30;0.30;;;;;;;;;;7396011;19;20146;-85
2022/10/31 05:35:10;;;;;;;0.30;0.30;;;;;;;;;;7397010;19;20097;-86
2022/10/31 05:37:36;;;;;;;0.20;0.20;;;;;;;;;;7392392;19;20132;-85
2022/10/31 05:40:06;;;;;;;0.30;0.30;;;;;;;;;;7397088;19;20146;-85
2022/10/31 05:42:31;;;;;;;0.30;0.30;;;;;;;;;;7394755;19;20133;-89
2022/10/31 05:44:57;;;;;;;0.20;0.20;;;;;;;;;;7392828;19;20129;-85
2022/10/31 05:47:22;;;;;;;0.40;0.40;;;;;;;;;;7394956;19;20118;-85
2022/10/31 05:49:48;;;;;;;0.20;0.20;;;;;;;;;;7394844;19;20702;-86
2022/10/31 05:52:13;;;;;;;0.30;0.30;;;;;;;;;;7395860;19;20113;-85
2022/10/31 05:54:39;;;;;;;0.20;0.20;;;;;;;;;;7394279;19;20140;-87
2022/10/31 05:57:04;;;;;;;0.30;0.30;;;;;;;;;;7396288;19;20128;-88
2022/10/31 05:59:29;;;;;;;0.30;0.30;;;;;;;;;;7394510;19;20152;-85
2022/10/31 06:01:54;;;;;;;0.30;0.30;;;;;;;;;;7394676;19;20158;-86
2022/10/31 06:04:20;;;;;;;0.50;0.50;;;;;;;;;;7396212;19;20539;-85
2022/10/31 06:06:45;;;;;;;0.20;0.20;;;;;;;;;;7396873;19;20133;-87
2022/10/31 06:09:10;;;;;;;0.20;0.20;;;;;;;;;;7395708;19;20160;-86
2022/10/31 06:11:35;;;;;;;0.20;0.20;;;;;;;;;;7396907;19;20581;-85
2022/10/31 06:14:06;;;;;;;0.70;0.70;;;;;;;;;;7397522;19;20609;-86
2022/10/31 06:16:31;;;;;;;4.63;0.93;;;;;;;;;;7396164;19;20225;-88
2022/10/31 06:18:57;;;;;;;0.30;0.30;;;;;;;;;;7395394;19;20168;-86
2022/10/31 06:21:22;;;;;;;1.07;0.73;;;;;;;;;;7397924;19;20451;-87
2022/10/31 06:23:47;;;;;;;0.20;0.20;;;;;;;;;;7395245;19;20587;-86
2022/10/31 06:26:16;;;;;;;0.53;0.53;;;;;;;;;;7394617;19;20807;-86
2022/10/31 06:28:41;;;;;;;0.30;0.30;;;;;;;;;;7387002;19;20160;-86
2022/10/31 06:31:06;;;;;;;0.30;0.30;;;;;;;;;;7393798;19;20484;-88
2022/10/31 06:33:35;;;;;;;5.10;1.43;;;;;;;;;;7393148;19;20137;-88
2022/10/31 06:36:01;;;;;;;0.30;0.30;;;;;;;;;;7392749;19;20126;-86
2022/10/31 06:38:30;;;;;;;0.40;0.40;;;;;;;;;;7396104;19;20157;-90
2022/10/31 06:40:55;;;;;;;0.30;0.30;;;;;;;;;;7395965;19;20116;-87
2022/10/31 06:43:21;;;;;;;0.30;0.30;;;;;;;;;;7401027;19;20132;-86
2022/10/31 06:45:47;;;;;;;0.20;0.20;;;;;;;;;;7397511;19;20122;-86
2022/10/31 06:48:12;;;;;;;0.30;0.30;;;;;;;;;;7400437;19;20148;-86
2022/10/31 06:50:37;;;;;;;0.20;0.20;;;;;;;;;;7404726;19;20125;-86
2022/10/31 06:53:03;;;;;;;0.30;0.30;;;;;;;;;;7408892;19;20149;-86
2022/10/31 06:55:28;;;;;;;0.30;0.30;;;;;;;;;;7415673;19;20136;-88
2022/10/31 06:57:59;;;;;;;0.20;0.20;;;;;;;;;;7411628;19;20826;-86
2022/10/31 07:00:25;;;;;;;0.30;0.30;;;;;;;;;;7409857;19;20804;-87
2022/10/31 07:03:01;;;;;;;0.53;0.53;;;;;;;;;;7409606;19;20470;-87
2022/10/31 07:05:27;;;;;;;0.30;0.30;;;;;;;;;;7402252;19;20158;-88
2022/10/31 07:07:54;;;;;;;0.20;0.20;;;;;;;;;;7399947;19;20134;-87
2022/10/31 07:10:19;;;;;;;0.30;0.30;;;;;;;;;;7400102;19;20129;-87
2022/10/31 07:12:44;;;;;;;0.33;0.33;;;;;;;;;;7400598;19;20132;-88
2022/10/31 07:15:10;;;;;;;0.30;0.30;;;;;;;;;;7401401;19;20141;-91
2022/10/31 07:17:35;;;;;;;0.30;0.30;;;;;;;;;;7399682;19;20441;-88
2022/10/31 07:20:00;;;;;;;0.70;0.70;;;;;;;;;;7400937;19;20561;-87
2022/10/31 07:22:32;;;;;;;0.40;0.40;;;;;;;;;;7398437;19;20633;-89
2022/10/31 07:24:57;;;;;;;5.10;1.33;;;;;;;;;;7398850;19;20605;-90
2022/10/31 07:27:23;;;;;;;0.30;0.30;;;;;;;;;;7398567;19;20109;-88
2022/10/31 07:29:48;;;;;;;0.40;0.40;;;;;;;;;;7400167;19;20121;-90
2022/10/31 07:32:13;;;;;;;0.30;0.30;;;;;;;;;;7399598;19;20598;-87
2022/10/31 07:34:39;;;;;;;0.30;0.30;;;;;;;;;;7414381;19;20106;-90
2022/10/31 07:37:04;;;;;;;0.20;0.20;;;;;;;;;;7421083;19;20137;-87
2022/10/31 07:39:29;;;;;;;0.40;0.40;;;;;;;;;;7415963;19;20152;-89
2022/10/31 07:41:58;;;;;;;0.30;0.30;;;;;;;;;;7417590;19;20104;-87
2022/10/31 07:44:23;;;;;;;0.33;0.33;;;;;;;;;;7407479;19;20124;-92
2022/10/31 07:46:48;;;;;;;0.40;0.40;;;;;;;;;;7406566;19;20652;-88
2022/10/31 07:49:13;;;;;;;0.30;0.30;;;;;;;;;;7404451;19;20152;-88
2022/10/31 07:51:39;;;;;;;0.30;0.30;;;;;;;;;;7406372;19;20125;-88
2022/10/31 07:54:04;;;;;;;0.30;0.30;;;;;;;;;;7405185;19;20152;-90
2022/10/31 07:56:29;;;;;;;0.27;0.27;;;;;;;;;;7407894;19;20112;-86
2022/10/31 07:58:55;;;;;;;0.20;0.20;;;;;;;;;;7403702;19;20503;-87
2022/10/31 08:01:20;;;;;;;0.60;0.60;;;;;;;;;;7403996;19;20140;-88
2022/10/31 08:03:45;;;;;;;0.30;0.30;;;;;;;;;;7405160;19;20121;-88
2022/10/31 08:06:11;;;;;;;0.40;0.40;;;;;;;;;;7405489;19;20192;-88
2022/10/31 08:08:37;;;;;;;0.30;0.30;;;;;;;;;;7403104;19;20159;-88
2022/10/31 08:11:02;;;;;;;0.30;0.30;;;;;;;;;;7392245;19;20113;-89
2022/10/31 08:13:27;;;;;;;0.33;0.33;;;;;;;;;;7390372;19;20128;-88
2022/10/31 08:15:53;;;;;;;0.50;0.50;;;;;;;;;;7391106;19;20605;-87
2022/10/31 08:18:19;;;;;;;0.77;0.77;;;;;;;;;;7390039;19;20152;-88
2022/10/31 08:20:44;;;;;;;0.30;0.30;;;;;;;;;;7394978;19;20148;-87
2022/10/31 08:23:11;;;;;;;0.30;0.30;;;;;;;;;;7403377;19;20634;-90
2022/10/31 08:25:36;;;;;;;0.30;0.30;;;;;;;;;;7401577;19;20108;-87
2022/10/31 08:28:02;;;;;;;0.20;0.20;;;;;;;;;;7401359;19;20160;-88
2022/10/31 08:30:29;;;;;;;0.40;0.40;;;;;;;;;;7403713;19;20133;-90
2022/10/31 08:33:15;;;;;;;0.20;0.20;;;;;;;;;;7404855;19;20105;-87
2022/10/31 08:35:40;;;;;;;0.30;0.30;;;;;;;;;;7404728;19;20170;-88
2022/10/31 08:38:07;;;;;;;0.90;0.90;;;;;;;;;;7403894;19;20478;-87
2022/10/31 08:40:33;;;;;;;0.30;0.30;;;;;;;;;;7404349;19;20105;-88
2022/10/31 08:43:03;;;;;;;0.40;0.40;;;;;;;;;;7405247;19;20453;-87
2022/10/31 08:45:30;;;;;;;0.30;0.30;;;;;;;;;;7403525;19;20154;-87
2022/10/31 08:48:08;;;;;;;0.40;0.40;;;;;;;;;;7402894;19;20157;-88
2022/10/31 08:50:35;;;;;;;0.50;0.50;;;;;;;;;;7403936;19;20121;-88
2022/10/31 08:53:05;;;;;;;0.30;0.30;;;;;;;;;;7404191;19;20496;-88
2022/10/31 08:55:33;;;;;;;0.30;0.30;;;;;;;;;;7404789;19;20130;-87
2022/10/31 08:57:58;;;;;;;0.53;0.53;;;;;;;;;;7403618;19;20160;-89
2022/10/31 09:00:24;;;;;;;0.63;0.57;;;;;;;;;;7406444;19;20460;-88
2022/10/31 09:02:57;;;;;;;0.38;0.38;;;;;;;;;;7404722;19;20141;-89
2022/10/31 09:05:22;;;;;;;0.50;0.50;;;;;;;;;;7402404;19;20136;-88
2022/10/31 09:07:47;;;;;;;0.30;0.30;;;;;;;;;;7402198;19;20159;-87
2022/10/31 09:10:12;;;;;;;0.30;0.30;;;;;;;;;;7403717;19;20129;-88
2022/10/31 09:12:38;;;;;;;0.40;0.40;;;;;;;;;;7401500;19;20121;-88
2022/10/31 09:15:06;;;;;;;0.30;0.30;;;;;;;;;;7403109;19;20097;-88
2022/10/31 09:17:31;;;;;;;0.30;0.30;;;;;;;;;;7402618;19;20496;-88
2022/10/31 09:19:56;;;;;;;0.30;0.30;;;;;;;;;;7402905;19;20109;-87
2022/10/31 09:22:22;;;;;;;1.07;0.60;;;;;;;;;;7402813;19;20121;-88
2022/10/31 09:24:47;;;;;;;0.45;0.45;;;;;;;;;;7401340;19;20132;-87
2022/10/31 09:27:12;;;;;;;0.37;0.37;;;;;;;;;;7401692;19;20149;-87
2022/10/31 09:29:38;;;;;;;0.35;0.35;;;;;;;;;;7401860;19;20165;-87
2022/10/31 09:32:03;;;;;;;0.30;0.30;;;;;;;;;;7404358;19;20121;-89
2022/10/31 09:34:28;;;;;;;0.50;0.50;;;;;;;;;;7403692;19;20162;-88
2022/10/31 09:36:54;;;;;;;0.30;0.30;;;;;;;;;;7403601;19;20178;-88
2022/10/31 09:39:19;;;;;;;0.30;0.30;;;;;;;;;;7401866;19;20257;-87
2022/10/31 09:42:23;;;;;;;0.40;0.40;;;;;;;;;;7403842;19;20581;-88
2022/10/31 09:45:06;;;;;;;0.40;0.40;;;;;;;;;;7402089;19;20132;-89
2022/10/31 09:47:57;;;;;;;0.30;0.30;;;;;;;;;;7403320;19;20609;-89
2022/10/31 09:50:26;;;;;;;0.25;0.25;;;;;;;;;;7403189;19;20125;-89
2022/10/31 09:53:09;;;;;;;0.30;0.30;;;;;;;;;;7402968;19;20138;-88
2022/10/31 09:55:43;;;;;;;0.30;0.30;;;;;;;;;;7403643;19;20132;-88
2022/10/31 09:58:15;;;;;;;0.60;0.60;;;;;;;;;;7403145;19;20233;-89
2022/10/31 10:00:42;;;;;;;0.30;0.30;;;;;;;;;;7404877;19;20123;-90
2022/10/31 10:03:29;;;;;;;2.92;1.23;;;;;;;;;;7402790;19;20184;-88
2022/10/31 10:06:04;;;;;;;0.30;0.30;;;;;;;;;;7401658;19;20136;-88
2022/10/31 10:08:31;;;;;;;0.30;0.30;;;;;;;;;;7402420;19;20140;-90
2022/10/31 10:11:08;;;;;;;0.30;0.30;;;;;;;;;;7402917;19;20113;-89
2022/10/31 10:13:59;;;;;;;0.45;0.35;;;;;;;;;;7402753;19;20129;-89
2022/10/31 10:16:42;;;;;;;0.30;0.30;;;;;;;;;;7401861;19;20614;-88
2022/10/31 10:19:28;;;;;;;0.30;0.30;;;;;;;;;;7399376;19;20636;-88
2022/10/31 10:22:09;;;;;;;0.63;0.63;;;;;;;;;;7400847;19;20146;-89
2022/10/31 10:25:06;;;;;;;1.25;1.25;;;;;;;;;;7401929;19;20128;-89
2022/10/31 10:27:49;;;;;;;0.30;0.30;;;;;;;;;;7411393;19;20113;-89
2022/10/31 10:30:16;;;;;;;0.30;0.30;;;;;;;;;;7408458;19;20188;-89
2022/10/31 10:33:08;;;;;;;1.00;1.00;;;;;;;;;;7407726;19;20117;-89
2022/10/31 10:35:49;;;;;;;2.50;2.30;;;;;;;;;;7406378;19;20482;-90
2022/10/31 10:38:28;;;;;;;0.30;0.30;;;;;;;;;;7403673;19;20190;-89
2022/10/31 10:40:54;;;;;;;0.30;0.30;;;;;;;;;;7403851;19;20120;-89
2022/10/31 10:43:38;;;;;;;0.40;0.40;;;;;;;;;;7404005;19;20221;-90
2022/10/31 10:49:19;;;;;;;0.40;0.40;;;;;;;;;;7403620;19;20132;-92
2022/10/31 10:52:10;;;;;;;0.40;0.40;;;;;;;;;;7406588;19;20128;-92
2022/10/31 10:55:03;;;;;;;0.30;0.30;;;;;;;;;;7408353;19;20129;-90
2022/10/31 10:57:59;;;;;;;0.30;0.30;;;;;;;;;;7408418;19;20620;-91
2022/10/31 11:00:35;;;;;;;0.30;0.30;;;;;;;;;;7400956;19;20148;-89
2022/10/31 11:03:00;;;;;;;0.30;0.30;;;;;;;;;;7397979;19;20117;-89
2022/10/31 11:05:51;;;;;;;0.68;0.68;;;;;;;;;;7396560;19;20180;-89
2022/10/31 11:08:43;;;;;;;0.20;0.20;;;;;;;;;;7397669;19;20157;-89
2022/10/31 11:11:25;;;;;;;0.30;0.30;;;;;;;;;;7402060;19;20939;-90
2022/10/31 11:13:52;;;;;;;0.30;0.30;;;;;;;;;;7412768;19;20121;-90
2022/10/31 11:16:27;;;;;;;0.30;0.30;;;;;;;;;;7412116;19;20155;-89
2022/10/31 11:18:53;;;;;;;1.20;0.93;;;;;;;;;;7411185;19;20163;-90
2022/10/31 11:21:29;;;;;;;0.40;0.40;;;;;;;;;;7412681;19;20121;-90
2022/10/31 11:24:09;;;;;;;0.82;0.80;;;;;;;;;;7409836;19;20585;-91
2022/10/31 11:26:37;;;;;;;3.17;1.10;;;;;;;;;;7405904;19;20152;-90
2022/10/31 11:29:03;;;;;;;0.40;0.40;;;;;;;;;;7405353;19;20161;-91
2022/10/31 11:31:29;;;;;;;0.40;0.40;;;;;;;;;;7405073;19;20151;-90
2022/10/31 11:34:04;;;;;;;0.30;0.30;;;;;;;;;;7404419;19;20561;-90
2022/10/31 11:36:32;;;;;;;0.47;0.47;;;;;;;;;;7406183;19;20128;-90
2022/10/31 11:38:58;;;;;;;0.52;0.52;;;;;;;;;;7405139;19;20181;-90
2022/10/31 11:41:33;;;;;;;0.55;0.52;;;;;;;;;;7404655;19;20144;-89
2022/10/31 11:44:02;;;;;;;0.45;0.45;;;;;;;;;;7405087;19;20124;-90
2022/10/31 11:46:38;;;;;;;0.40;0.40;;;;;;;;;;7405889;19;20163;-90
2022/10/31 11:49:05;;;;;;;0.57;0.57;;;;;;;;;;7403448;19;20878;-90
2022/10/31 11:51:33;;;;;;;0.40;0.40;;;;;;;;;;7404922;19;20128;-90
2022/10/31 11:53:59;;;;;;;0.40;0.40;;;;;;;;;;7404370;19;20125;-90
2022/10/31 11:56:25;;;;;;;0.47;0.47;;;;;;;;;;7406472;19;20475;-90
2022/10/31 11:59:05;;;;;;;0.80;0.80;;;;;;;;;;7405941;19;20121;-91
2022/10/31 12:01:32;;;;;;;0.30;0.30;;;;;;;;;;7409312;19;20120;-91
2022/10/31 12:04:10;;;;;;;0.43;0.43;;;;;;;;;;7408422;19;20120;-90
2022/10/31 12:06:37;;;;;;;0.50;0.50;;;;;;;;;;7408614;19;20137;-91
2022/10/31 12:09:15;;;;;;;0.40;0.40;;;;;;;;;;7409204;19;20175;-91
2022/10/31 12:11:56;;;;;;;0.30;0.30;;;;;;;;;;7401457;19;20156;-90
2022/10/31 12:14:50;;;;;;;0.30;0.30;;;;;;;;;;7402861;19;20117;-91
2022/10/31 12:17:24;;;;;;;1.52;0.95;;;;;;;;;;7405966;19;20210;-91
2022/10/31 12:19:55;;;;;;;0.57;0.57;;;;;;;;;;7403131;19;20212;-91
2022/10/31 12:22:40;;;;;;;0.47;0.47;;;;;;;;;;7400533;19;20125;-91
2022/10/31 12:25:21;;;;;;;2.05;0.90;;;;;;;;;;7399197;19;20133;-92
2022/10/31 12:28:05;;;;;;;0.77;0.75;;;;;;;;;;7401475;19;20159;-91
2022/10/31 12:30:59;;;;;;;0.40;0.40;;;;;;;;;;7402405;19;20129;-91
2022/10/31 12:33:51;;;;;;;0.47;0.47;;;;;;;;;;7399458;19;20188;-91
2022/10/31 12:36:29;;;;;;;0.63;0.57;;;;;;;;;;7402630;19;20150;-91
2022/10/31 12:39:06;;;;;;;0.50;0.50;;;;;;;;;;7399105;19;20160;-91
2022/10/31 12:41:56;;;;;;;0.73;0.73;;;;;;;;;;7401951;19;20119;-91
2022/10/31 12:44:27;;;;;;;0.45;0.45;;;;;;;;;;7419443;19;20141;-92
2022/10/31 12:47:04;;;;;;;0.60;0.60;;;;;;;;;;7425448;19;20105;-92
2022/10/31 12:49:48;;;;;;;0.75;0.75;;;;;;;;;;7425536;19;20132;-92
2022/10/31 12:52:40;;;;;;;0.80;0.75;;;;;;;;;;7426375;19;20128;-91
2022/10/31 12:55:16;;;;;;;2.60;1.27;;;;;;;;;;7404310;19;20613;-90
2022/10/31 12:57:54;;;;;;;0.50;0.50;;;;;;;;;;7401379;19;20463;-91
2022/10/31 13:00:19;;;;;;;1.20;0.95;;;;;;;;;;7400735;19;20137;-91
2022/10/31 13:02:45;;;;;;;1.38;1.27;;;;;;;;;;7399965;19;20133;-91
2022/10/31 13:05:39;;;;;;;1.45;1.02;;;;;;;;;;7397760;19;20519;-91
2022/10/31 13:08:08;;;;;;;1.25;0.85;;;;;;;;;;7400896;19;20172;-91
2022/10/31 13:11:01;;;;;;;2.58;1.05;;;;;;;;;;7400348;19;20199;-91
2022/10/31 13:13:33;;;;;;;1.67;1.05;;;;;;;;;;7401619;19;20121;-91
2022/10/31 13:16:09;;;;;;;0.52;0.52;;;;;;;;;;7400675;19;20125;-91
2022/10/31 13:18:39;;;;;;;0.77;0.57;;;;;;;;;;7397287;19;20167;-91
2022/10/31 13:21:10;;;;;;;0.95;0.95;;;;;;;;;;7398673;19;20572;-90
2022/10/31 13:23:37;;;;;;;0.40;0.40;;;;;;;;;;7400664;19;20133;-92
2022/10/31 13:26:15;;;;;;;1.45;1.35;;;;;;;;;;7398707;19;20576;-90
2022/10/31 13:28:41;;;;;;;0.63;0.63;;;;;;;;;;7399237;19;20219;-92
2022/10/31 13:31:06;;;;;;;0.50;0.50;;;;;;;;;;7400374;19;20124;-91
2022/10/31 13:34:03;;;;;;;0.70;0.70;;;;;;;;;;7399568;19;20349;-90
2022/10/31 13:36:36;;;;;;;0.68;0.68;;;;;;;;;;7399686;19;20208;-91
2022/10/31 13:39:18;;;;;;;0.75;0.75;;;;;;;;;;7398253;19;20244;-92
2022/10/31 13:41:48;;;;;;;0.50;0.50;;;;;;;;;;7399981;19;20134;-91
2022/10/31 13:44:26;;;;;;;0.40;0.40;;;;;;;;;;7400377;19;20121;-91
2022/10/31 13:46:52;;;;;;;0.77;0.77;;;;;;;;;;7401207;19;20589;-92
2022/10/31 13:49:30;;;;;;;0.30;0.30;;;;;;;;;;7398699;19;20189;-90
2022/10/31 13:52:06;;;;;;;0.50;0.50;;;;;;;;;;7402027;19;20113;-90
2022/10/31 13:54:33;;;;;;;0.50;0.50;;;;;;;;;;7399583;19;20128;-90
2022/10/31 13:56:59;;;;;;;0.30;0.30;;;;;;;;;;7399457;19;20120;-91
2022/10/31 13:59:30;;;;;;;1.35;1.25;;;;;;;;;;7400265;19;20148;-91
2022/10/31 14:01:59;;;;;;;0.47;0.47;;;;;;;;;;7405773;19;20113;-91
2022/10/31 14:04:35;;;;;;;0.82;0.82;;;;;;;;;;7406465;19;20129;-91
2022/10/31 14:07:12;;;;;;;0.40;0.40;;;;;;;;;;7407017;19;20125;-91
2022/10/31 14:09:40;;;;;;;1.05;1.05;;;;;;;;;;7402069;19;20625;-92
2022/10/31 14:12:08;;;;;;;0.30;0.30;;;;;;;;;;7406764;19;20113;-90
2022/10/31 14:14:44;;;;;;;1.58;0.63;;;;;;;;;;7406131;19;20148;-90
2022/10/31 14:17:21;;;;;;;0.32;0.32;;;;;;;;;;7406004;19;20166;-90
2022/10/31 14:20:00;;;;;;;0.40;0.40;;;;;;;;;;7405989;19;20120;-90
2022/10/31 14:22:30;;;;;;;0.70;0.70;;;;;;;;;;7404990;19;20133;-91
2022/10/31 14:24:56;;;;;;;2.55;0.68;;;;;;;;;;7402853;19;20141;-91
2022/10/31 14:27:24;;;;;;;0.30;0.30;;;;;;;;;;7405492;19;20121;-91
2022/10/31 14:29:49;;;;;;;0.40;0.40;;;;;;;;;;7404967;19;20479;-90
2022/10/31 14:32:23;;;;;;;0.30;0.30;;;;;;;;;;7406475;19;20190;-90
2022/10/31 14:34:55;;;;;;;0.50;0.50;;;;;;;;;;7402640;19;20117;-90
2022/10/31 14:37:43;;;;;;;0.30;0.30;;;;;;;;;;7414366;19;20129;-91
2022/10/31 14:40:42;;;;;;;0.40;0.40;;;;;;;;;;7408914;19;20141;-90
2022/10/31 14:43:29;;;;;;;0.60;0.60;;;;;;;;;;7408339;19;20129;-90
2022/10/31 14:46:13;;;;;;;0.88;0.88;;;;;;;;;;7406070;19;20132;-90
2022/10/31 14:49:05;;;;;;;0.30;0.30;;;;;;;;;;7405669;19;20229;-90
2022/10/31 14:51:36;;;;;;;0.40;0.40;;;;;;;;;;7407388;19;20136;-90
2022/10/31 14:54:02;;;;;;;0.20;0.20;;;;;;;;;;7409904;19;20139;-90
2022/10/31 14:56:29;;;;;;;0.30;0.30;;;;;;;;;;7414301;19;20125;-89
2022/10/31 14:58:58;;;;;;;0.30;0.30;;;;;;;;;;7412582;19;20651;-91
2022/10/31 15:01:28;;;;;;;0.30;0.30;;;;;;;;;;7411762;19;20117;-91
2022/10/31 15:03:58;;;;;;;0.30;0.30;;;;;;;;;;7405571;19;20113;-90
2022/10/31 15:06:24;;;;;;;0.30;0.30;;;;;;;;;;7399130;19;20117;-89
2022/10/31 15:08:54;;;;;;;0.90;0.70;;;;;;;;;;7395212;19;20160;-89